sensor_id;sensor_type;location;lat;lon;timestamp;P1;durP1;ratioP1;P2;durP2;ratioP2
819;SDS011;392;48.838;2.322;2022-08-03T00:01:05;7.17;;;6.67;;
819;SDS011;392;48.838;2.322;2022-08-03T00:03:32;6.27;;;5.87;;
819;SDS011;392;48.838;2.322;2022-08-03T00:06:01;5.93;;;5.53;;
819;SDS011;392;48.838;2.322;2022-08-03T00:08:28;6.13;;;5.73;;
819;SDS011;392;48.838;2.322;2022-08-03T00:10:55;6.60;;;6.00;;
819;SDS011;392;48.838;2.322;2022-08-03T00:13:23;6.43;;;6.00;;
819;SDS011;392;48.838;2.322;2022-08-03T00:15:51;7.10;;;6.60;;
819;SDS011;392;48.838;2.322;2022-08-03T00:18:19;6.50;;;6.00;;
819;SDS011;392;48.838;2.322;2022-08-03T00:20:46;6.20;;;5.70;;
819;SDS011;392;48.838;2.322;2022-08-03T00:23:15;5.20;;;5.00;;
819;SDS011;392;48.838;2.322;2022-08-03T00:25:42;5.73;;;4.73;;
819;SDS011;392;48.838;2.322;2022-08-03T00:28:11;5.77;;;4.63;;
819;SDS011;392;48.838;2.322;2022-08-03T00:30:38;5.43;;;5.10;;
819;SDS011;392;48.838;2.322;2022-08-03T00:33:06;5.00;;;4.70;;
819;SDS011;392;48.838;2.322;2022-08-03T00:35:34;4.57;;;4.30;;
819;SDS011;392;48.838;2.322;2022-08-03T00:38:02;5.17;;;4.73;;
819;SDS011;392;48.838;2.322;2022-08-03T00:40:31;5.00;;;4.67;;
819;SDS011;392;48.838;2.322;2022-08-03T00:42:59;4.87;;;4.57;;
819;SDS011;392;48.838;2.322;2022-08-03T00:45:29;5.30;;;4.90;;
819;SDS011;392;48.838;2.322;2022-08-03T00:47:58;5.07;;;4.67;;
819;SDS011;392;48.838;2.322;2022-08-03T00:50:28;5.23;;;4.83;;
819;SDS011;392;48.838;2.322;2022-08-03T00:52:57;6.23;;;5.00;;
819;SDS011;392;48.838;2.322;2022-08-03T00:55:25;6.00;;;5.10;;
819;SDS011;392;48.838;2.322;2022-08-03T00:57:55;4.73;;;4.43;;
819;SDS011;392;48.838;2.322;2022-08-03T01:00:24;5.03;;;4.70;;
819;SDS011;392;48.838;2.322;2022-08-03T01:02:53;4.70;;;4.47;;
819;SDS011;392;48.838;2.322;2022-08-03T01:05:20;4.73;;;4.43;;
819;SDS011;392;48.838;2.322;2022-08-03T01:07:52;4.73;;;4.17;;
819;SDS011;392;48.838;2.322;2022-08-03T01:10:31;4.80;;;4.10;;
819;SDS011;392;48.838;2.322;2022-08-03T01:13:13;4.43;;;4.17;;
819;SDS011;392;48.838;2.322;2022-08-03T01:15:53;4.70;;;4.40;;
819;SDS011;392;48.838;2.322;2022-08-03T01:18:35;4.67;;;4.40;;
819;SDS011;392;48.838;2.322;2022-08-03T01:21:11;4.00;;;3.70;;
819;SDS011;392;48.838;2.322;2022-08-03T01:23:55;4.00;;;3.80;;
819;SDS011;392;48.838;2.322;2022-08-03T01:26:47;4.00;;;3.57;;
819;SDS011;392;48.838;2.322;2022-08-03T01:32:27;4.30;;;3.80;;
819;SDS011;392;48.838;2.322;2022-08-03T01:35:03;3.80;;;3.60;;
819;SDS011;392;48.838;2.322;2022-08-03T01:37:37;4.43;;;4.13;;
819;SDS011;392;48.838;2.322;2022-08-03T01:40:08;4.70;;;3.50;;
819;SDS011;392;48.838;2.322;2022-08-03T01:42:39;3.90;;;3.70;;
819;SDS011;392;48.838;2.322;2022-08-03T01:45:10;3.60;;;3.40;;
819;SDS011;392;48.838;2.322;2022-08-03T01:47:39;3.67;;;3.37;;
819;SDS011;392;48.838;2.322;2022-08-03T01:50:08;4.13;;;3.80;;
819;SDS011;392;48.838;2.322;2022-08-03T01:52:36;4.80;;;3.30;;
819;SDS011;392;48.838;2.322;2022-08-03T01:55:07;5.43;;;3.93;;
819;SDS011;392;48.838;2.322;2022-08-03T01:57:36;3.87;;;3.57;;
819;SDS011;392;48.838;2.322;2022-08-03T02:00:05;2.77;;;2.67;;
819;SDS011;392;48.838;2.322;2022-08-03T02:02:39;3.50;;;3.20;;
819;SDS011;392;48.838;2.322;2022-08-03T02:05:08;3.40;;;3.07;;
819;SDS011;392;48.838;2.322;2022-08-03T02:07:38;3.20;;;3.00;;
819;SDS011;392;48.838;2.322;2022-08-03T02:10:08;2.93;;;2.73;;
819;SDS011;392;48.838;2.322;2022-08-03T02:12:38;3.50;;;3.20;;
819;SDS011;392;48.838;2.322;2022-08-03T02:15:08;3.13;;;2.93;;
819;SDS011;392;48.838;2.322;2022-08-03T02:17:39;3.60;;;3.30;;
819;SDS011;392;48.838;2.322;2022-08-03T02:20:09;3.87;;;3.50;;
819;SDS011;392;48.838;2.322;2022-08-03T02:22:38;3.83;;;3.63;;
819;SDS011;392;48.838;2.322;2022-08-03T02:25:07;3.47;;;3.20;;
819;SDS011;392;48.838;2.322;2022-08-03T02:27:37;3.90;;;3.47;;
819;SDS011;392;48.838;2.322;2022-08-03T02:30:09;3.40;;;3.10;;
819;SDS011;392;48.838;2.322;2022-08-03T02:32:40;3.57;;;3.33;;
819;SDS011;392;48.838;2.322;2022-08-03T02:35:10;3.93;;;3.70;;
819;SDS011;392;48.838;2.322;2022-08-03T02:37:40;4.87;;;4.20;;
819;SDS011;392;48.838;2.322;2022-08-03T02:40:12;4.73;;;4.33;;
819;SDS011;392;48.838;2.322;2022-08-03T02:42:41;4.17;;;3.27;;
819;SDS011;392;48.838;2.322;2022-08-03T02:45:11;4.27;;;3.97;;
819;SDS011;392;48.838;2.322;2022-08-03T02:47:41;4.50;;;3.70;;
819;SDS011;392;48.838;2.322;2022-08-03T02:50:11;3.57;;;3.37;;
819;SDS011;392;48.838;2.322;2022-08-03T02:52:40;4.00;;;3.80;;
819;SDS011;392;48.838;2.322;2022-08-03T02:55:10;4.00;;;3.70;;
819;SDS011;392;48.838;2.322;2022-08-03T02:57:39;3.67;;;3.40;;
819;SDS011;392;48.838;2.322;2022-08-03T03:00:07;3.57;;;3.27;;
819;SDS011;392;48.838;2.322;2022-08-03T03:02:36;3.20;;;3.00;;
819;SDS011;392;48.838;2.322;2022-08-03T03:05:08;3.60;;;3.37;;
819;SDS011;392;48.838;2.322;2022-08-03T03:07:36;3.87;;;3.40;;
819;SDS011;392;48.838;2.322;2022-08-03T03:10:05;3.27;;;3.07;;
819;SDS011;392;48.838;2.322;2022-08-03T03:12:34;3.40;;;3.20;;
819;SDS011;392;48.838;2.322;2022-08-03T03:15:03;3.57;;;3.47;;
819;SDS011;392;48.838;2.322;2022-08-03T03:17:32;3.50;;;3.30;;
819;SDS011;392;48.838;2.322;2022-08-03T03:20:00;3.70;;;3.50;;
819;SDS011;392;48.838;2.322;2022-08-03T03:22:31;3.63;;;3.33;;
819;SDS011;392;48.838;2.322;2022-08-03T03:24:59;3.27;;;2.70;;
819;SDS011;392;48.838;2.322;2022-08-03T03:27:27;3.70;;;3.40;;
819;SDS011;392;48.838;2.322;2022-08-03T03:29:56;3.80;;;3.50;;
819;SDS011;392;48.838;2.322;2022-08-03T03:32:25;3.37;;;3.07;;
819;SDS011;392;48.838;2.322;2022-08-03T03:34:53;4.37;;;4.07;;
819;SDS011;392;48.838;2.322;2022-08-03T03:37:23;4.83;;;3.30;;
819;SDS011;392;48.838;2.322;2022-08-03T03:39:53;5.40;;;3.60;;
819;SDS011;392;48.838;2.322;2022-08-03T03:42:20;3.80;;;3.50;;
819;SDS011;392;48.838;2.322;2022-08-03T03:44:48;4.00;;;3.70;;
819;SDS011;392;48.838;2.322;2022-08-03T03:47:15;3.57;;;3.37;;
819;SDS011;392;48.838;2.322;2022-08-03T03:49:44;3.97;;;3.67;;
819;SDS011;392;48.838;2.322;2022-08-03T03:52:11;3.43;;;2.90;;
819;SDS011;392;48.838;2.322;2022-08-03T03:54:39;4.00;;;3.70;;
819;SDS011;392;48.838;2.322;2022-08-03T03:57:09;3.87;;;3.57;;
819;SDS011;392;48.838;2.322;2022-08-03T03:59:37;4.20;;;3.40;;
819;SDS011;392;48.838;2.322;2022-08-03T04:02:04;3.70;;;3.40;;
819;SDS011;392;48.838;2.322;2022-08-03T04:04:33;4.17;;;3.77;;
819;SDS011;392;48.838;2.322;2022-08-03T04:07:15;3.43;;;3.13;;
819;SDS011;392;48.838;2.322;2022-08-03T04:09:59;3.40;;;3.23;;
819;SDS011;392;48.838;2.322;2022-08-03T04:12:46;3.57;;;3.27;;
819;SDS011;392;48.838;2.322;2022-08-03T04:15:16;3.07;;;2.87;;
819;SDS011;392;48.838;2.322;2022-08-03T04:17:48;3.80;;;3.50;;
819;SDS011;392;48.838;2.322;2022-08-03T04:20:19;4.20;;;3.60;;
819;SDS011;392;48.838;2.322;2022-08-03T04:22:48;3.37;;;3.07;;
819;SDS011;392;48.838;2.322;2022-08-03T04:25:16;3.50;;;3.30;;
819;SDS011;392;48.838;2.322;2022-08-03T04:27:47;4.30;;;3.47;;
819;SDS011;392;48.838;2.322;2022-08-03T04:30:16;3.80;;;3.50;;
819;SDS011;392;48.838;2.322;2022-08-03T04:32:45;3.90;;;3.60;;
819;SDS011;392;48.838;2.322;2022-08-03T04:35:16;4.57;;;3.70;;
819;SDS011;392;48.838;2.322;2022-08-03T04:37:45;3.40;;;3.20;;
819;SDS011;392;48.838;2.322;2022-08-03T04:40:16;3.70;;;3.40;;
819;SDS011;392;48.838;2.322;2022-08-03T04:42:52;3.70;;;3.40;;
819;SDS011;392;48.838;2.322;2022-08-03T04:45:20;4.30;;;3.50;;
819;SDS011;392;48.838;2.322;2022-08-03T04:47:50;4.37;;;3.90;;
819;SDS011;392;48.838;2.322;2022-08-03T04:50:17;3.87;;;3.57;;
819;SDS011;392;48.838;2.322;2022-08-03T04:53:02;3.60;;;3.33;;
819;SDS011;392;48.838;2.322;2022-08-03T04:55:32;3.77;;;3.47;;
819;SDS011;392;48.838;2.322;2022-08-03T04:58:02;3.60;;;3.27;;
819;SDS011;392;48.838;2.322;2022-08-03T05:00:30;3.77;;;3.47;;
819;SDS011;392;48.838;2.322;2022-08-03T05:02:58;3.50;;;3.20;;
819;SDS011;392;48.838;2.322;2022-08-03T05:05:25;3.23;;;2.93;;
819;SDS011;392;48.838;2.322;2022-08-03T05:07:53;3.47;;;3.30;;
819;SDS011;392;48.838;2.322;2022-08-03T05:10:20;3.93;;;3.30;;
819;SDS011;392;48.838;2.322;2022-08-03T05:12:47;5.00;;;3.40;;
819;SDS011;392;48.838;2.322;2022-08-03T05:15:17;4.13;;;3.70;;
819;SDS011;392;48.838;2.322;2022-08-03T05:17:44;4.17;;;3.70;;
819;SDS011;392;48.838;2.322;2022-08-03T05:20:12;3.77;;;3.40;;
819;SDS011;392;48.838;2.322;2022-08-03T05:22:39;4.80;;;4.40;;
819;SDS011;392;48.838;2.322;2022-08-03T05:25:06;4.00;;;3.57;;
819;SDS011;392;48.838;2.322;2022-08-03T05:27:34;3.93;;;3.57;;
819;SDS011;392;48.838;2.322;2022-08-03T05:30:01;4.20;;;3.80;;
819;SDS011;392;48.838;2.322;2022-08-03T05:32:31;4.20;;;3.80;;
819;SDS011;392;48.838;2.322;2022-08-03T05:34:58;4.33;;;3.93;;
819;SDS011;392;48.838;2.322;2022-08-03T05:37:26;5.27;;;4.80;;
819;SDS011;392;48.838;2.322;2022-08-03T05:39:53;4.73;;;4.40;;
819;SDS011;392;48.838;2.322;2022-08-03T05:42:20;4.40;;;4.10;;
819;SDS011;392;48.838;2.322;2022-08-03T05:44:48;4.20;;;3.87;;
819;SDS011;392;48.838;2.322;2022-08-03T05:47:15;4.17;;;3.87;;
819;SDS011;392;48.838;2.322;2022-08-03T05:49:44;4.70;;;4.40;;
819;SDS011;392;48.838;2.322;2022-08-03T05:52:11;4.37;;;4.00;;
819;SDS011;392;48.838;2.322;2022-08-03T05:54:38;5.00;;;4.50;;
819;SDS011;392;48.838;2.322;2022-08-03T05:57:06;4.37;;;4.17;;
819;SDS011;392;48.838;2.322;2022-08-03T05:59:33;5.80;;;5.30;;
819;SDS011;392;48.838;2.322;2022-08-03T06:02:00;5.40;;;5.00;;
819;SDS011;392;48.838;2.322;2022-08-03T06:04:27;5.70;;;5.13;;
819;SDS011;392;48.838;2.322;2022-08-03T06:06:56;5.00;;;4.60;;
819;SDS011;392;48.838;2.322;2022-08-03T06:09:23;5.50;;;5.20;;
819;SDS011;392;48.838;2.322;2022-08-03T06:11:51;5.73;;;5.33;;
819;SDS011;392;48.838;2.322;2022-08-03T06:14:18;5.60;;;5.10;;
819;SDS011;392;48.838;2.322;2022-08-03T06:16:45;5.53;;;5.23;;
819;SDS011;392;48.838;2.322;2022-08-03T06:19:12;6.13;;;5.40;;
819;SDS011;392;48.838;2.322;2022-08-03T06:21:40;4.77;;;4.57;;
819;SDS011;392;48.838;2.322;2022-08-03T06:24:08;5.90;;;5.60;;
819;SDS011;392;48.838;2.322;2022-08-03T06:26:36;6.10;;;5.53;;
819;SDS011;392;48.838;2.322;2022-08-03T06:29:04;5.70;;;5.40;;
819;SDS011;392;48.838;2.322;2022-08-03T06:31:31;6.60;;;5.97;;
819;SDS011;392;48.838;2.322;2022-08-03T06:33:58;8.23;;;6.50;;
819;SDS011;392;48.838;2.322;2022-08-03T06:36:27;7.50;;;7.00;;
819;SDS011;392;48.838;2.322;2022-08-03T06:38:55;6.60;;;6.13;;
819;SDS011;392;48.838;2.322;2022-08-03T06:41:25;8.83;;;7.63;;
819;SDS011;392;48.838;2.322;2022-08-03T06:43:52;7.80;;;7.00;;
819;SDS011;392;48.838;2.322;2022-08-03T06:46:20;9.07;;;7.70;;
819;SDS011;392;48.838;2.322;2022-08-03T06:48:47;7.50;;;6.80;;
819;SDS011;392;48.838;2.322;2022-08-03T06:51:14;7.53;;;7.00;;
819;SDS011;392;48.838;2.322;2022-08-03T06:53:42;8.17;;;7.37;;
819;SDS011;392;48.838;2.322;2022-08-03T06:56:09;7.67;;;7.17;;
819;SDS011;392;48.838;2.322;2022-08-03T06:58:38;8.90;;;8.20;;
819;SDS011;392;48.838;2.322;2022-08-03T07:01:05;8.57;;;7.87;;
819;SDS011;392;48.838;2.322;2022-08-03T07:03:32;9.10;;;8.50;;
819;SDS011;392;48.838;2.322;2022-08-03T07:06:00;9.00;;;8.40;;
819;SDS011;392;48.838;2.322;2022-08-03T07:08:27;9.60;;;9.10;;
819;SDS011;392;48.838;2.322;2022-08-03T07:10:55;9.37;;;8.67;;
819;SDS011;392;48.838;2.322;2022-08-03T07:13:22;9.80;;;9.10;;
819;SDS011;392;48.838;2.322;2022-08-03T07:15:51;10.27;;;9.40;;
819;SDS011;392;48.838;2.322;2022-08-03T07:18:18;9.20;;;8.67;;
819;SDS011;392;48.838;2.322;2022-08-03T07:20:45;8.90;;;8.40;;
819;SDS011;392;48.838;2.322;2022-08-03T07:23:13;10.40;;;9.90;;
819;SDS011;392;48.838;2.322;2022-08-03T07:25:40;10.43;;;9.73;;
819;SDS011;392;48.838;2.322;2022-08-03T07:28:08;10.93;;;10.27;;
819;SDS011;392;48.838;2.322;2022-08-03T07:30:35;11.00;;;10.43;;
819;SDS011;392;48.838;2.322;2022-08-03T07:33:04;10.67;;;9.87;;
819;SDS011;392;48.838;2.322;2022-08-03T07:35:32;9.93;;;9.23;;
819;SDS011;392;48.838;2.322;2022-08-03T07:37:59;9.43;;;8.93;;
819;SDS011;392;48.838;2.322;2022-08-03T07:40:27;11.67;;;11.07;;
819;SDS011;392;48.838;2.322;2022-08-03T07:42:54;11.37;;;10.77;;
819;SDS011;392;48.838;2.322;2022-08-03T07:45:22;15.03;;;14.23;;
819;SDS011;392;48.838;2.322;2022-08-03T07:47:50;12.17;;;11.57;;
819;SDS011;392;48.838;2.322;2022-08-03T07:50:19;15.30;;;14.60;;
819;SDS011;392;48.838;2.322;2022-08-03T07:52:47;13.00;;;12.50;;
819;SDS011;392;48.838;2.322;2022-08-03T07:55:16;13.83;;;12.90;;
819;SDS011;392;48.838;2.322;2022-08-03T07:57:45;14.07;;;13.30;;
819;SDS011;392;48.838;2.322;2022-08-03T08:00:13;15.47;;;14.70;;
819;SDS011;392;48.838;2.322;2022-08-03T08:02:44;19.13;;;18.07;;
819;SDS011;392;48.838;2.322;2022-08-03T08:05:11;20.97;;;19.67;;
819;SDS011;392;48.838;2.322;2022-08-03T08:07:40;17.43;;;16.73;;
819;SDS011;392;48.838;2.322;2022-08-03T08:10:08;19.70;;;18.80;;
819;SDS011;392;48.838;2.322;2022-08-03T08:12:36;21.10;;;20.20;;
819;SDS011;392;48.838;2.322;2022-08-03T08:15:05;20.03;;;19.23;;
819;SDS011;392;48.838;2.322;2022-08-03T08:17:40;17.90;;;17.13;;
819;SDS011;392;48.838;2.322;2022-08-03T08:20:14;17.93;;;16.93;;
819;SDS011;392;48.838;2.322;2022-08-03T08:22:44;19.37;;;18.57;;
819;SDS011;392;48.838;2.322;2022-08-03T08:25:12;22.47;;;21.40;;
819;SDS011;392;48.838;2.322;2022-08-03T08:27:40;25.93;;;24.83;;
819;SDS011;392;48.838;2.322;2022-08-03T08:30:09;24.50;;;23.47;;
819;SDS011;392;48.838;2.322;2022-08-03T08:32:38;27.13;;;25.87;;
819;SDS011;392;48.838;2.322;2022-08-03T08:35:06;29.67;;;28.57;;
819;SDS011;392;48.838;2.322;2022-08-03T08:37:34;32.63;;;31.30;;
819;SDS011;392;48.838;2.322;2022-08-03T08:40:03;34.53;;;33.30;;
819;SDS011;392;48.838;2.322;2022-08-03T08:42:33;39.33;;;37.80;;
819;SDS011;392;48.838;2.322;2022-08-03T08:45:03;35.43;;;34.13;;
819;SDS011;392;48.838;2.322;2022-08-03T08:47:33;37.63;;;36.20;;
819;SDS011;392;48.838;2.322;2022-08-03T08:50:04;39.10;;;37.60;;
819;SDS011;392;48.838;2.322;2022-08-03T08:52:34;35.37;;;34.17;;
819;SDS011;392;48.838;2.322;2022-08-03T08:55:04;33.10;;;32.00;;
819;SDS011;392;48.838;2.322;2022-08-03T08:57:35;31.70;;;30.60;;
819;SDS011;392;48.838;2.322;2022-08-03T09:00:05;21.67;;;20.57;;
819;SDS011;392;48.838;2.322;2022-08-03T09:02:38;26.77;;;25.80;;
819;SDS011;392;48.838;2.322;2022-08-03T09:05:08;27.50;;;26.60;;
819;SDS011;392;48.838;2.322;2022-08-03T09:07:37;28.80;;;27.80;;
819;SDS011;392;48.838;2.322;2022-08-03T09:10:07;30.60;;;29.70;;
819;SDS011;392;48.838;2.322;2022-08-03T09:12:36;24.60;;;23.67;;
819;SDS011;392;48.838;2.322;2022-08-03T09:17:52;35.23;;;33.83;;
819;SDS011;392;48.838;2.322;2022-08-03T09:20:23;33.83;;;32.63;;
819;SDS011;392;48.838;2.322;2022-08-03T09:22:54;37.17;;;35.70;;
819;SDS011;392;48.838;2.322;2022-08-03T09:25:29;31.23;;;30.03;;
819;SDS011;392;48.838;2.322;2022-08-03T09:28:05;36.67;;;35.47;;
819;SDS011;392;48.838;2.322;2022-08-03T09:30:35;39.50;;;38.20;;
819;SDS011;392;48.838;2.322;2022-08-03T09:33:05;45.97;;;44.57;;
819;SDS011;392;48.838;2.322;2022-08-03T09:35:39;46.90;;;45.23;;
819;SDS011;392;48.838;2.322;2022-08-03T09:38:08;47.00;;;45.67;;
819;SDS011;392;48.838;2.322;2022-08-03T09:40:39;52.30;;;50.70;;
819;SDS011;392;48.838;2.322;2022-08-03T09:43:08;42.20;;;40.80;;
819;SDS011;392;48.838;2.322;2022-08-03T09:45:36;39.53;;;38.13;;
819;SDS011;392;48.838;2.322;2022-08-03T09:48:21;49.10;;;47.47;;
819;SDS011;392;48.838;2.322;2022-08-03T09:50:50;40.47;;;39.17;;
819;SDS011;392;48.838;2.322;2022-08-03T09:53:18;41.10;;;39.90;;
819;SDS011;392;48.838;2.322;2022-08-03T09:55:52;49.20;;;47.70;;
819;SDS011;392;48.838;2.322;2022-08-03T09:58:21;58.40;;;56.50;;
819;SDS011;392;48.838;2.322;2022-08-03T10:00:56;55.23;;;53.53;;
819;SDS011;392;48.838;2.322;2022-08-03T10:03:26;66.27;;;64.17;;
819;SDS011;392;48.838;2.322;2022-08-03T10:05:55;74.40;;;72.00;;
819;SDS011;392;48.838;2.322;2022-08-03T10:08:23;66.10;;;64.17;;
819;SDS011;392;48.838;2.322;2022-08-03T10:10:52;47.20;;;45.50;;
819;SDS011;392;48.838;2.322;2022-08-03T10:13:20;55.03;;;53.23;;
819;SDS011;392;48.838;2.322;2022-08-03T10:15:48;55.50;;;53.80;;
819;SDS011;392;48.838;2.322;2022-08-03T10:18:16;62.17;;;60.10;;
819;SDS011;392;48.838;2.322;2022-08-03T10:20:45;61.87;;;60.07;;
819;SDS011;392;48.838;2.322;2022-08-03T10:23:17;70.70;;;68.70;;
819;SDS011;392;48.838;2.322;2022-08-03T10:25:46;77.97;;;75.67;;
819;SDS011;392;48.838;2.322;2022-08-03T10:28:23;70.90;;;68.50;;
819;SDS011;392;48.838;2.322;2022-08-03T10:30:51;56.50;;;54.63;;
819;SDS011;392;48.838;2.322;2022-08-03T10:33:20;56.80;;;55.20;;
819;SDS011;392;48.838;2.322;2022-08-03T10:35:53;57.87;;;56.23;;
819;SDS011;392;48.838;2.322;2022-08-03T10:38:25;58.80;;;56.80;;
819;SDS011;392;48.838;2.322;2022-08-03T10:40:59;60.83;;;59.10;;
819;SDS011;392;48.838;2.322;2022-08-03T10:43:30;76.43;;;74.13;;
819;SDS011;392;48.838;2.322;2022-08-03T10:46:08;92.33;;;89.83;;
819;SDS011;392;48.838;2.322;2022-08-03T10:48:36;81.63;;;79.43;;
819;SDS011;392;48.838;2.322;2022-08-03T10:51:03;90.40;;;88.10;;
819;SDS011;392;48.838;2.322;2022-08-03T10:53:35;87.10;;;84.60;;
819;SDS011;392;48.838;2.322;2022-08-03T10:56:05;82.60;;;80.30;;
819;SDS011;392;48.838;2.322;2022-08-03T11:05:36;59.40;;;57.60;;
819;SDS011;392;48.838;2.322;2022-08-03T11:08:25;62.60;;;60.80;;
819;SDS011;392;48.838;2.322;2022-08-03T11:10:56;65.03;;;62.93;;
819;SDS011;392;48.838;2.322;2022-08-03T11:13:27;76.80;;;74.60;;
819;SDS011;392;48.838;2.322;2022-08-03T11:16:03;77.07;;;74.90;;
819;SDS011;392;48.838;2.322;2022-08-03T11:18:54;41.27;;;39.80;;
819;SDS011;392;48.838;2.322;2022-08-03T11:27:29;52.80;;;51.30;;
819;SDS011;392;48.838;2.322;2022-08-03T11:29:59;63.80;;;61.83;;
819;SDS011;392;48.838;2.322;2022-08-03T11:35:28;58.07;;;56.37;;
819;SDS011;392;48.838;2.322;2022-08-03T11:38:05;57.47;;;55.77;;
819;SDS011;392;48.838;2.322;2022-08-03T11:40:35;66.40;;;64.50;;
819;SDS011;392;48.838;2.322;2022-08-03T11:43:09;69.13;;;67.03;;
819;SDS011;392;48.838;2.322;2022-08-03T11:46:11;75.20;;;72.90;;
819;SDS011;392;48.838;2.322;2022-08-03T11:48:45;64.53;;;62.63;;
819;SDS011;392;48.838;2.322;2022-08-03T11:51:18;60.57;;;58.77;;
819;SDS011;392;48.838;2.322;2022-08-03T11:53:50;51.03;;;49.43;;
819;SDS011;392;48.838;2.322;2022-08-03T11:56:19;49.90;;;48.47;;
819;SDS011;392;48.838;2.322;2022-08-03T11:58:46;43.20;;;41.73;;
819;SDS011;392;48.838;2.322;2022-08-03T12:01:16;39.13;;;38.00;;
819;SDS011;392;48.838;2.322;2022-08-03T12:03:47;46.30;;;44.90;;
819;SDS011;392;48.838;2.322;2022-08-03T12:06:15;48.63;;;47.17;;
819;SDS011;392;48.838;2.322;2022-08-03T12:08:44;53.60;;;51.80;;
819;SDS011;392;48.838;2.322;2022-08-03T12:11:12;50.63;;;49.13;;
819;SDS011;392;48.838;2.322;2022-08-03T12:13:42;58.40;;;56.60;;
819;SDS011;392;48.838;2.322;2022-08-03T12:16:16;52.50;;;50.87;;
819;SDS011;392;48.838;2.322;2022-08-03T12:18:44;60.10;;;58.30;;
819;SDS011;392;48.838;2.322;2022-08-03T12:21:20;62.60;;;60.80;;
819;SDS011;392;48.838;2.322;2022-08-03T12:23:49;63.00;;;61.20;;
819;SDS011;392;48.838;2.322;2022-08-03T12:26:17;65.43;;;63.57;;
819;SDS011;392;48.838;2.322;2022-08-03T12:28:46;62.60;;;60.80;;
819;SDS011;392;48.838;2.322;2022-08-03T12:31:14;59.30;;;57.40;;
819;SDS011;392;48.838;2.322;2022-08-03T12:33:56;59.93;;;57.90;;
819;SDS011;392;48.838;2.322;2022-08-03T12:36:26;63.17;;;61.27;;
819;SDS011;392;48.838;2.322;2022-08-03T12:38:55;52.30;;;50.70;;
819;SDS011;392;48.838;2.322;2022-08-03T12:41:28;50.83;;;49.33;;
819;SDS011;392;48.838;2.322;2022-08-03T12:43:58;52.50;;;50.90;;
819;SDS011;392;48.838;2.322;2022-08-03T12:46:30;48.30;;;46.80;;
819;SDS011;392;48.838;2.322;2022-08-03T12:49:02;53.60;;;52.10;;
819;SDS011;392;48.838;2.322;2022-08-03T12:51:33;54.03;;;52.33;;
819;SDS011;392;48.838;2.322;2022-08-03T12:54:04;50.10;;;48.70;;
819;SDS011;392;48.838;2.322;2022-08-03T12:56:32;48.57;;;47.07;;
819;SDS011;392;48.838;2.322;2022-08-03T12:59:00;38.30;;;37.17;;
819;SDS011;392;48.838;2.322;2022-08-03T13:01:51;35.97;;;34.77;;
819;SDS011;392;48.838;2.322;2022-08-03T13:04:25;32.47;;;31.47;;
819;SDS011;392;48.838;2.322;2022-08-03T13:06:57;29.23;;;28.43;;
819;SDS011;392;48.838;2.322;2022-08-03T13:09:26;26.73;;;25.93;;
819;SDS011;392;48.838;2.322;2022-08-03T13:12:03;29.73;;;28.83;;
819;SDS011;392;48.838;2.322;2022-08-03T13:14:32;30.73;;;29.83;;
819;SDS011;392;48.838;2.322;2022-08-03T13:17:00;27.40;;;26.33;;
819;SDS011;392;48.838;2.322;2022-08-03T13:19:28;25.87;;;25.07;;
819;SDS011;392;48.838;2.322;2022-08-03T13:21:57;25.40;;;24.50;;
819;SDS011;392;48.838;2.322;2022-08-03T13:24:25;26.57;;;25.57;;
819;SDS011;392;48.838;2.322;2022-08-03T13:26:53;24.33;;;23.63;;
819;SDS011;392;48.838;2.322;2022-08-03T13:29:20;19.33;;;18.73;;
819;SDS011;392;48.838;2.322;2022-08-03T13:31:47;19.23;;;18.63;;
819;SDS011;392;48.838;2.322;2022-08-03T13:34:15;18.03;;;17.33;;
819;SDS011;392;48.838;2.322;2022-08-03T13:36:44;15.40;;;14.90;;
819;SDS011;392;48.838;2.322;2022-08-03T13:39:12;2.30;;;2.10;;
819;SDS011;392;48.838;2.322;2022-08-03T13:41:39;17.00;;;16.40;;
819;SDS011;392;48.838;2.322;2022-08-03T13:44:06;16.10;;;15.50;;
819;SDS011;392;48.838;2.322;2022-08-03T13:46:33;17.70;;;16.93;;
819;SDS011;392;48.838;2.322;2022-08-03T13:49:01;13.70;;;13.30;;
819;SDS011;392;48.838;2.322;2022-08-03T13:51:28;14.50;;;14.00;;
819;SDS011;392;48.838;2.322;2022-08-03T13:53:57;13.57;;;13.10;;
819;SDS011;392;48.838;2.322;2022-08-03T13:56:24;12.67;;;12.17;;
819;SDS011;392;48.838;2.322;2022-08-03T13:58:51;13.83;;;13.33;;
819;SDS011;392;48.838;2.322;2022-08-03T14:01:19;12.40;;;11.87;;
819;SDS011;392;48.838;2.322;2022-08-03T14:03:47;12.60;;;12.20;;
819;SDS011;392;48.838;2.322;2022-08-03T14:06:18;10.67;;;10.07;;
819;SDS011;392;48.838;2.322;2022-08-03T14:08:45;9.70;;;9.30;;
819;SDS011;392;48.838;2.322;2022-08-03T14:11:14;9.43;;;9.03;;
819;SDS011;392;48.838;2.322;2022-08-03T14:13:43;9.90;;;9.40;;
819;SDS011;392;48.838;2.322;2022-08-03T14:16:10;8.70;;;8.40;;
819;SDS011;392;48.838;2.322;2022-08-03T14:18:38;9.40;;;9.00;;
819;SDS011;392;48.838;2.322;2022-08-03T14:21:06;8.97;;;8.67;;
819;SDS011;392;48.838;2.322;2022-08-03T14:23:34;9.60;;;9.20;;
819;SDS011;392;48.838;2.322;2022-08-03T14:26:02;7.90;;;7.60;;
819;SDS011;392;48.838;2.322;2022-08-03T14:28:31;8.07;;;7.50;;
819;SDS011;392;48.838;2.322;2022-08-03T14:30:59;8.90;;;8.30;;
819;SDS011;392;48.838;2.322;2022-08-03T14:33:27;7.47;;;7.17;;
819;SDS011;392;48.838;2.322;2022-08-03T14:35:55;8.47;;;8.07;;
819;SDS011;392;48.838;2.322;2022-08-03T14:38:22;8.40;;;8.00;;
819;SDS011;392;48.838;2.322;2022-08-03T14:40:50;8.60;;;8.20;;
819;SDS011;392;48.838;2.322;2022-08-03T14:43:18;7.60;;;7.27;;
819;SDS011;392;48.838;2.322;2022-08-03T14:45:47;7.77;;;7.47;;
819;SDS011;392;48.838;2.322;2022-08-03T14:48:16;7.43;;;7.13;;
819;SDS011;392;48.838;2.322;2022-08-03T14:50:44;7.90;;;7.50;;
819;SDS011;392;48.838;2.322;2022-08-03T14:53:11;8.13;;;7.53;;
819;SDS011;392;48.838;2.322;2022-08-03T14:55:39;8.13;;;7.83;;
819;SDS011;392;48.838;2.322;2022-08-03T14:58:06;8.60;;;8.10;;
819;SDS011;392;48.838;2.322;2022-08-03T15:00:34;8.33;;;7.97;;
819;SDS011;392;48.838;2.322;2022-08-03T15:03:03;7.73;;;7.30;;
819;SDS011;392;48.838;2.322;2022-08-03T15:05:31;7.47;;;7.17;;
819;SDS011;392;48.838;2.322;2022-08-03T15:07:58;7.67;;;7.37;;
819;SDS011;392;48.838;2.322;2022-08-03T15:10:25;7.10;;;6.90;;
819;SDS011;392;48.838;2.322;2022-08-03T15:12:53;8.00;;;7.47;;
819;SDS011;392;48.838;2.322;2022-08-03T15:15:20;7.80;;;7.50;;
819;SDS011;392;48.838;2.322;2022-08-03T15:17:47;8.07;;;7.47;;
819;SDS011;392;48.838;2.322;2022-08-03T15:20:16;8.10;;;7.60;;
819;SDS011;392;48.838;2.322;2022-08-03T15:22:44;8.60;;;8.20;;
819;SDS011;392;48.838;2.322;2022-08-03T15:25:11;7.47;;;7.17;;
819;SDS011;392;48.838;2.322;2022-08-03T15:27:38;8.57;;;8.10;;
819;SDS011;392;48.838;2.322;2022-08-03T15:30:06;8.30;;;7.77;;
819;SDS011;392;48.838;2.322;2022-08-03T15:32:35;7.80;;;7.33;;
819;SDS011;392;48.838;2.322;2022-08-03T15:35:02;6.87;;;6.67;;
819;SDS011;392;48.838;2.322;2022-08-03T15:37:32;7.10;;;6.90;;
819;SDS011;392;48.838;2.322;2022-08-03T15:39:59;8.00;;;7.60;;
819;SDS011;392;48.838;2.322;2022-08-03T15:42:27;8.23;;;7.87;;
819;SDS011;392;48.838;2.322;2022-08-03T15:44:55;7.97;;;7.37;;
819;SDS011;392;48.838;2.322;2022-08-03T15:47:23;9.17;;;8.77;;
819;SDS011;392;48.838;2.322;2022-08-03T15:49:50;7.43;;;7.03;;
819;SDS011;392;48.838;2.322;2022-08-03T15:52:18;7.40;;;7.10;;
819;SDS011;392;48.838;2.322;2022-08-03T15:54:46;7.80;;;7.50;;
819;SDS011;392;48.838;2.322;2022-08-03T15:57:14;8.20;;;7.90;;
819;SDS011;392;48.838;2.322;2022-08-03T15:59:41;6.90;;;6.60;;
819;SDS011;392;48.838;2.322;2022-08-03T16:02:08;7.70;;;7.40;;
819;SDS011;392;48.838;2.322;2022-08-03T16:04:35;8.37;;;7.77;;
819;SDS011;392;48.838;2.322;2022-08-03T16:07:03;7.50;;;7.20;;
819;SDS011;392;48.838;2.322;2022-08-03T16:09:30;7.47;;;7.20;;